Time;durP1;ratioP1;P1;durP2;ratioP2;P2;SDS_P1;SDS_P2;PMS_P1;PMS_P2;Temp;Humidity;BMP_temperature;BMP_pressure;BME280_temperature;BME280_humidity;BME280_pressure;Samples;Min_cycle;Max_cycle;Signal;HPM_P1;HPM_P2
2022/04/15 00:00:09;;;;;;;3.47;2.00;;;;;;;10.00;85.60;99936.22;8092794;29;20381;-71
2022/04/15 00:04:10;;;;;;;4.40;2.20;;;;;;;9.95;86.11;99933.59;8096281;29;20503;-71
2022/04/15 00:08:13;;;;;;;3.15;1.73;;;;;;;9.91;86.49;99939.66;8098564;29;20127;-71
2022/04/15 00:12:27;;;;;;;2.75;1.60;;;;;;;9.90;85.99;99934.44;8092330;29;20080;-71
2022/04/15 00:16:28;;;;;;;5.15;1.92;;;;;;;9.85;86.43;99934.38;8097255;29;20377;-72
2022/04/15 00:20:31;;;;;;;3.08;1.63;;;;;;;9.81;85.89;99936.97;8109979;29;20047;-71
2022/04/15 00:24:32;;;;;;;5.32;1.85;;;;;;;9.75;85.67;99934.31;8119717;29;20055;-73
2022/04/15 00:28:34;;;;;;;4.18;1.77;;;;;;;9.69;86.13;99942.91;8113050;29;20136;-71
2022/04/15 00:32:36;;;;;;;6.15;1.50;;;;;;;9.64;86.20;99931.63;8107863;29;20052;-72
2022/04/15 00:36:37;;;;;;;5.20;2.00;;;;;;;9.61;86.47;99932.50;8084665;29;20088;-71
2022/04/15 00:40:39;;;;;;;4.95;2.30;;;;;;;9.54;86.50;99937.63;8082671;29;20049;-72
2022/04/15 00:44:40;;;;;;;4.20;2.08;;;;;;;9.48;86.70;99935.81;8081623;29;20079;-72
2022/04/15 00:48:41;;;;;;;3.80;2.08;;;;;;;9.42;86.79;99935.78;8076196;29;20061;-73
2022/04/15 00:52:47;;;;;;;3.63;2.47;;;;;;;9.31;86.17;99934.81;8082257;29;20045;-73
2022/04/15 00:56:52;;;;;;;4.15;2.80;;;;;;;9.21;86.66;99940.78;8081188;29;20095;-72
2022/04/15 01:00:56;;;;;;;5.05;3.17;;;;;;;9.10;86.83;99945.81;8080212;29;20539;-73
2022/04/15 01:05:00;;;;;;;5.45;2.40;;;;;;;9.05;86.63;99943.19;8081234;29;20135;-73
2022/04/15 01:09:02;;;;;;;4.45;2.60;;;;;;;9.02;86.55;99942.31;8076839;29;20053;-72
2022/04/15 01:13:06;;;;;;;3.85;2.10;;;;;;;8.95;86.86;99953.44;8076719;29;20053;-72
2022/04/15 01:17:24;;;;;;;5.35;2.53;;;;;;;8.89;87.59;99951.66;8072261;29;20048;-72
2022/04/15 01:21:31;;;;;;;4.00;2.38;;;;;;;8.82;87.23;99951.56;8078284;29;20049;-73
2022/04/15 01:25:32;;;;;;;3.17;2.30;;;;;;;8.73;86.73;99957.50;8081499;29;20045;-72
2022/04/15 01:29:38;;;;;;;3.73;2.60;;;;;;;8.66;87.64;99956.56;8083511;29;20067;-72
2022/04/15 01:33:40;;;;;;;2.70;2.10;;;;;;;8.68;87.77;99959.16;8079092;29;20049;-73
2022/04/15 01:37:43;;;;;;;6.57;1.98;;;;;;;8.68;87.14;99960.03;8054607;29;20429;-73
2022/04/15 01:41:44;;;;;;;2.92;2.10;;;;;;;8.63;87.57;99956.53;8080592;29;20124;-72
2022/04/15 01:45:46;;;;;;;2.95;2.08;;;;;;;8.62;87.65;99959.09;8073041;29;20155;-72
2022/04/15 01:49:47;;;;;;;3.55;2.03;;;;;;;8.58;87.52;99953.00;8071108;29;20515;-72
2022/04/15 01:53:49;;;;;;;3.05;2.20;;;;;;;8.54;87.87;99953.81;8091115;29;20040;-72
2022/04/15 01:57:50;;;;;;;4.72;2.15;;;;;;;8.46;88.09;99956.31;8082068;29;20135;-71
2022/04/15 02:01:54;;;;;;;3.97;2.17;;;;;;;8.44;88.08;99950.25;8086788;29;20053;-71
2022/04/15 02:05:56;;;;;;;2.20;1.90;;;;;;;8.32;88.84;99952.63;8103161;29;20040;-73
2022/04/15 02:09:57;;;;;;;2.38;1.60;;;;;;;8.33;88.86;99956.97;8089705;29;20139;-73
2022/04/15 02:13:59;;;;;;;1.77;1.58;;;;;;;8.35;88.88;99957.88;8091150;29;20058;-72
2022/04/15 02:18:01;;;;;;;3.37;1.47;;;;;;;8.35;88.48;99957.88;8088174;29;20067;-72
2022/04/15 02:22:02;;;;;;;2.53;1.55;;;;;;;8.34;88.58;99955.28;8109378;29;20072;-72
2022/04/15 02:26:04;;;;;;;3.40;1.60;;;;;;;8.32;88.22;99954.34;8089015;29;20131;-72
2022/04/15 02:30:06;;;;;;;6.03;1.33;;;;;;;8.28;88.28;99963.78;8072910;29;20037;-72
2022/04/15 02:34:07;;;;;;;5.47;1.93;;;;;;;8.23;87.76;99967.16;8095836;29;20160;-72
2022/04/15 02:38:09;;;;;;;3.08;1.77;;;;;;;8.07;87.79;99969.50;8076428;29;20306;-72
2022/04/15 02:42:11;;;;;;;3.83;1.52;;;;;;;8.01;88.25;99964.25;8078284;29;20072;-72
2022/04/15 02:46:13;;;;;;;3.70;1.60;;;;;;;8.01;88.16;99963.38;8084178;29;20059;-72
2022/04/15 02:50:14;;;;;;;;;;;;;;;8.02;88.36;99966.00;8086021;29;20120;-72
2022/04/15 02:54:16;;;;;;;1.83;1.67;;;;;;;7.96;88.37;99970.22;8089674;29;19937;-72
2022/04/15 02:58:18;;;;;;;2.58;1.92;;;;;;;7.91;88.73;99964.97;8089544;29;20131;-72
2022/04/15 03:02:20;;;;;;;4.03;1.80;;;;;;;7.88;88.75;99960.59;8078185;29;20131;-73
2022/04/15 03:06:22;;;;;;;5.47;2.25;;;;;;;7.85;88.35;99964.84;8085279;29;20601;-73
2022/04/15 03:10:23;;;;;;;7.03;2.03;;;;;;;7.85;88.13;99962.28;8078313;29;20131;-72
2022/04/15 03:14:25;;;;;;;3.57;2.00;;;;;;;7.80;88.05;99971.69;8070934;29;20083;-72
2022/04/15 03:18:26;;;;;;;2.55;1.92;;;;;;;7.75;88.29;99966.44;8081255;29;20059;-72
2022/04/15 03:22:42;;;;;;;2.20;1.75;;;;;;;7.70;88.46;99964.59;8080047;29;20501;-72
2022/04/15 03:26:43;;;;;;;3.10;2.10;;;;;;;7.61;88.40;99965.34;8071628;29;20051;-72
2022/04/15 03:30:45;;;;;;;4.90;1.60;;;;;;;7.56;88.67;99967.84;8059969;29;20056;-73
2022/04/15 03:34:46;;;;;;;3.50;1.38;;;;;;;7.51;88.76;99969.47;8074537;29;20706;-73
2022/04/15 03:38:48;;;;;;;1.80;1.70;;;;;;;7.48;88.67;99974.59;8075631;29;20733;-72
2022/04/15 03:42:51;;;;;;;3.90;2.17;;;;;;;7.43;88.91;99981.41;8083569;29;20059;-73
2022/04/15 03:46:53;;;;;;;2.35;1.67;;;;;;;7.42;89.21;99976.22;8090538;29;20099;-72
2022/04/15 03:50:54;;;;;;;5.50;2.30;;;;;;;7.42;88.66;99976.22;8077220;29;20092;-73
2022/04/15 03:54:56;;;;;;;3.07;2.47;;;;;;;7.38;89.24;99980.47;8094098;29;20045;-73
2022/04/15 03:58:58;;;;;;;2.75;1.67;;;;;;;7.37;89.09;99988.19;8081494;29;20060;-73
2022/04/15 04:02:59;;;;;;;3.83;2.20;;;;;;;7.37;89.14;99990.75;8073765;29;20059;-73
2022/04/15 04:07:01;;;;;;;2.88;2.03;;;;;;;7.34;88.80;99990.69;8077719;29;20566;-73
2022/04/15 04:11:03;;;;;;;2.47;1.70;;;;;;;7.36;88.69;99991.56;8080390;29;20049;-73
2022/04/15 04:15:06;;;;;;;5.27;2.00;;;;;;;7.36;88.72;99989.91;8081339;29;20449;-73
2022/04/15 04:19:08;;;;;;;3.87;2.17;;;;;;;7.37;89.18;99988.19;8084481;29;20488;-73
2022/04/15 04:23:09;;;;;;;3.87;2.53;;;;;;;7.36;89.47;99996.75;8080242;29;20044;-73
2022/04/15 04:27:11;;;;;;;3.05;2.13;;;;;;;7.34;89.60;99994.13;8081404;29;20124;-72
2022/04/15 04:31:12;;;;;;;6.03;2.20;;;;;;;7.32;89.21;100000.13;8075943;29;20057;-73
2022/04/15 04:35:14;;;;;;;2.07;1.97;;;;;;;7.31;88.76;99996.66;8083364;29;20116;-73
2022/04/15 04:39:16;;;;;;;3.00;1.87;;;;;;;7.23;88.87;100004.28;8078945;29;20349;-73
2022/04/15 04:43:18;;;;;;;2.10;1.90;;;;;;;7.20;88.97;100001.66;8096055;29;20066;-73
2022/04/15 04:47:20;;;;;;;2.58;1.80;;;;;;;7.16;88.70;100009.28;8092063;29;20057;-73
2022/04/15 04:51:22;;;;;;;2.22;1.88;;;;;;;7.15;89.00;100013.59;8095352;29;20096;-73
2022/04/15 04:55:23;;;;;;;3.40;2.10;;;;;;;7.13;89.08;100025.59;8095638;29;20373;-73
2022/04/15 04:59:25;;;;;;;3.72;2.33;;;;;;;7.13;88.96;100023.03;8099902;29;20071;-73
2022/04/15 05:03:26;;;;;;;3.23;2.33;;;;;;;7.16;89.09;100029.94;8094959;29;20040;-72
2022/04/15 05:07:28;;;;;;;3.17;2.10;;;;;;;7.17;88.99;100035.13;8100641;29;20044;-72
2022/04/15 05:11:29;;;;;;;6.70;2.43;;;;;;;7.18;89.01;100042.09;8099500;29;20132;-72
2022/04/15 05:15:31;;;;;;;2.47;2.10;;;;;;;7.22;89.08;100043.88;8102795;29;20171;-72
2022/04/15 05:19:32;;;;;;;5.93;1.87;;;;;;;7.31;89.35;100037.13;8098727;29;20053;-72
2022/04/15 05:23:34;;;;;;;3.73;1.87;;;;;;;7.37;89.26;100042.44;8104739;29;20058;-72
2022/04/15 05:27:35;;;;;;;4.43;1.95;;;;;;;7.42;89.33;100044.25;8102509;29;20160;-71
2022/04/15 05:31:37;;;;;;;2.15;1.70;;;;;;;7.51;89.59;100040.94;8097748;29;20052;-71
2022/04/15 05:35:38;;;;;;;2.23;1.63;;;;;;;7.61;89.42;100052.34;8099707;29;20059;-71
2022/04/15 05:39:40;;;;;;;2.17;1.75;;;;;;;7.69;89.48;100043.88;8102518;29;20127;-71
2022/04/15 05:43:42;;;;;;;4.15;2.40;;;;;;;7.79;89.68;100053.53;8099551;29;20087;-72
2022/04/15 05:47:44;;;;;;;3.30;1.90;;;;;;;7.89;89.25;100057.13;8077953;29;20052;-73
2022/04/15 05:51:45;;;;;;;3.42;2.05;;;;;;;8.04;89.07;100062.56;8099551;29;20057;-71
2022/04/15 05:55:47;;;;;;;2.30;1.88;;;;;;;8.34;88.80;100064.81;8094877;29;20072;-73
2022/04/15 05:59:48;;;;;;;4.50;1.77;;;;;;;8.57;87.12;100061.69;8098268;29;20052;-72
2022/04/15 06:03:50;;;;;;;2.33;1.98;;;;;;;8.61;87.48;100066.06;8094387;29;20571;-71
2022/04/15 06:07:52;;;;;;;2.72;1.92;;;;;;;8.85;86.73;100081.09;8098837;29;20059;-72
2022/04/15 06:11:56;;;;;;;2.97;1.38;;;;;;;9.05;85.77;100075.31;8081765;29;20048;-73
2022/04/15 06:15:57;;;;;;;3.10;1.60;;;;;;;9.25;84.94;100085.91;8094811;29;20091;-73
2022/04/15 06:19:59;;;;;;;2.92;1.65;;;;;;;9.48;84.61;100088.75;8092443;29;20044;-73
2022/04/15 06:24:00;;;;;;;1.50;1.40;;;;;;;9.60;84.53;100088.03;8101504;29;20482;-73
2022/04/15 06:28:02;;;;;;;2.53;1.90;;;;;;;9.67;84.14;100092.41;8101058;29;20094;-73
2022/04/15 06:32:05;;;;;;;2.42;1.70;;;;;;;9.74;84.54;100095.97;8078581;29;20066;-73
2022/04/15 06:36:06;;;;;;;2.90;1.75;;;;;;;10.21;83.39;100089.50;8099484;29;20080;-73
2022/04/15 06:40:09;;;;;;;3.77;2.30;;;;;;;10.22;83.80;100091.25;8082925;29;20083;-73
2022/04/15 06:44:10;;;;;;;4.75;2.70;;;;;;;10.41;83.67;100088.78;8098573;29;20049;-73
2022/04/15 06:48:11;;;;;;;3.92;2.13;;;;;;;10.50;83.66;100094.94;8093115;29;20071;-73
2022/04/15 06:52:17;;;;;;;3.67;2.80;;;;;;;10.99;82.66;100099.56;8104473;29;20139;-73
2022/04/15 06:56:19;;;;;;;4.57;2.63;;;;;;;11.18;81.76;100098.78;8096146;29;20083;-73
2022/04/15 07:00:21;;;;;;;4.90;2.85;;;;;;;11.34;80.99;100098.00;8094505;29;20080;-73
2022/04/15 07:04:22;;;;;;;7.47;2.90;;;;;;;11.54;80.89;100103.28;8097165;29;20159;-73
2022/04/15 07:08:23;;;;;;;3.63;3.17;;;;;;;11.76;80.61;100105.06;8095538;29;20318;-73
2022/04/15 07:12:25;;;;;;;4.40;3.03;;;;;;;11.83;79.71;100105.09;8092969;29;20048;-74
2022/04/15 07:16:26;;;;;;;6.60;2.88;;;;;;;11.94;80.03;100117.25;8100699;29;20048;-72
2022/04/15 07:20:28;;;;;;;4.83;3.83;;;;;;;12.14;80.60;100119.91;8110746;29;20417;-73
2022/04/15 07:24:30;;;;;;;5.10;3.27;;;;;;;12.25;80.03;100110.38;8093850;29;20083;-73
2022/04/15 07:28:31;;;;;;;5.78;3.47;;;;;;;12.33;79.34;100113.81;8096833;29;20044;-73
2022/04/15 07:32:33;;;;;;;8.18;3.42;;;;;;;12.46;79.86;100111.22;8090095;29;20063;-73
2022/04/15 07:40:36;;;;;;;4.30;3.88;;;;;;;12.59;79.77;100116.44;8095107;29;20076;-72
2022/04/15 07:44:39;;;;;;;5.53;4.70;;;;;;;12.74;80.51;100125.06;8093823;29;20140;-74
2022/04/15 07:48:40;;;;;;;7.43;4.53;;;;;;;12.87;79.90;100121.59;8091386;29;20428;-72
2022/04/15 07:52:42;;;;;;;7.07;4.35;;;;;;;13.17;79.26;100124.13;8089627;29;20131;-72
2022/04/15 07:56:43;;;;;;;6.82;4.68;;;;;;;13.52;77.97;100126.63;8093599;29;20104;-72
2022/04/15 08:00:45;;;;;;;5.17;4.67;;;;;;;13.83;76.53;100127.34;8094190;29;20141;-72
2022/04/15 08:04:46;;;;;;;6.10;5.50;;;;;;;14.36;74.94;100125.22;8098651;29;20060;-72
2022/04/15 08:08:49;;;;;;;10.33;6.00;;;;;;;14.95;74.30;100122.09;8100169;29;20048;-72
2022/04/15 08:12:51;;;;;;;9.20;6.80;;;;;;;15.63;70.22;100123.09;8096427;29;20139;-72
2022/04/15 08:16:52;;;;;;;11.27;7.93;;;;;;;15.92;68.00;100135.75;8078570;29;20073;-72
2022/04/15 08:20:56;;;;;;;10.25;7.50;;;;;;;16.33;66.49;100132.50;8083510;29;20482;-71
2022/04/15 08:24:57;;;;;;;9.80;8.13;;;;;;;17.16;65.23;100131.09;8092909;29;20049;-72
2022/04/15 08:28:58;;;;;;;9.73;8.35;;;;;;;17.43;61.46;100134.94;8101455;29;20143;-73
2022/04/15 08:33:02;;;;;;;10.47;8.07;;;;;;;17.58;61.09;100133.75;8093804;29;20087;-71
2022/04/15 08:37:04;;;;;;;12.73;8.70;;;;;;;17.99;60.40;100130.25;8096743;29;20052;-72
2022/04/15 08:41:07;;;;;;;10.10;7.88;;;;;;;18.48;60.20;100126.44;8100593;29;20680;-73
2022/04/15 08:45:08;;;;;;;8.48;7.10;;;;;;;18.82;57.96;100129.97;8082823;29;20050;-72
2022/04/15 08:49:11;;;;;;;8.45;7.10;;;;;;;19.12;56.21;100125.66;8102645;29;20083;-72
2022/04/15 08:53:14;;;;;;;7.80;7.00;;;;;;;19.42;55.53;100131.00;8096992;29;20052;-72
2022/04/15 08:57:15;;;;;;;7.20;6.47;;;;;;;19.85;54.31;100127.97;8099461;29;20128;-73
2022/04/15 09:01:17;;;;;;;9.02;7.22;;;;;;;20.04;49.55;100130.91;8096031;29;20171;-72
2022/04/15 09:05:21;;;;;;;8.73;6.55;;;;;;;20.07;50.70;100133.44;8098374;29;20044;-71
2022/04/15 09:09:30;;;;;;;8.23;6.53;;;;;;;20.23;49.85;100137.31;8082552;29;20048;-71
2022/04/15 09:13:34;;;;;;;9.88;6.95;;;;;;;20.39;49.31;100140.31;8097509;29;20135;-71
2022/04/15 09:17:38;;;;;;;7.78;7.13;;;;;;;20.50;49.50;100135.59;8096862;29;20048;-70
2022/04/15 09:21:48;;;;;;;7.80;7.00;;;;;;;20.59;50.00;100140.56;8101512;29;20354;-71
2022/04/15 09:25:52;;;;;;;9.50;6.53;;;;;;;20.76;48.97;100134.72;8097299;29;20834;-71
2022/04/15 09:29:56;;;;;;;8.73;7.05;;;;;;;20.89;47.14;100140.44;8095132;29;20063;-70
2022/04/15 09:33:59;;;;;;;8.35;7.50;;;;;;;21.16;47.49;100143.88;8089327;29;20799;-71
2022/04/15 09:38:03;;;;;;;7.95;6.85;;;;;;;21.31;46.62;100148.66;8083034;29;20115;-71
2022/04/15 09:42:05;;;;;;;8.02;6.70;;;;;;;21.18;45.63;100148.19;8078038;29;20052;-71
2022/04/15 09:46:10;;;;;;;7.47;5.13;;;;;;;21.05;46.09;100137.22;8062162;29;20040;-72
2022/04/15 09:50:28;;;;;;;7.60;6.18;;;;;;;21.17;43.24;100142.97;8083100;29;20493;-71
2022/04/15 09:54:30;;;;;;;6.90;5.82;;;;;;;21.25;43.95;100135.66;8080261;29;20159;-71
2022/04/15 09:58:33;;;;;;;;;;;;;;;21.33;42.30;100133.59;8085739;29;20090;-71
2022/04/15 10:02:38;;;;;;;8.68;5.07;;;;;;;21.35;41.98;100135.25;8081537;29;20018;-70
2022/04/15 10:06:42;;;;;;;4.38;3.97;;;;;;;21.23;41.59;100126.91;8081996;29;20359;-71
2022/04/15 10:10:43;;;;;;;5.60;4.38;;;;;;;21.27;42.77;100129.41;8080095;29;20049;-71
2022/04/15 10:14:46;;;;;;;8.07;4.32;;;;;;;21.32;42.52;100130.09;8079997;29;20064;-70
2022/04/15 10:18:48;;;;;;;5.68;3.97;;;;;;;21.45;40.42;100127.88;8079482;29;20100;-71
2022/04/15 10:22:50;;;;;;;;;;;;;;;21.67;40.39;100123.50;8082862;29;20049;-71
2022/04/15 10:26:57;;;;;;;7.03;4.38;;;;;;;21.64;41.29;100120.97;8081328;29;19947;-71
2022/04/15 10:31:14;;;;;;;4.38;3.97;;;;;;;21.45;40.72;100119.09;8076750;29;20103;-71
2022/04/15 10:35:23;;;;;;;7.60;4.20;;;;;;;21.47;40.74;100119.88;8088604;29;20151;-71
2022/04/15 10:39:27;;;;;;;6.15;4.10;;;;;;;21.59;41.62;100114.16;8099008;29;20527;-71
2022/04/15 10:43:28;;;;;;;4.70;3.78;;;;;;;21.77;41.05;100107.28;8099285;29;20052;-70
2022/04/15 10:47:32;;;;;;;3.60;3.10;;;;;;;21.94;42.56;100110.16;8100320;29;20052;-71
2022/04/15 10:51:34;;;;;;;5.88;3.83;;;;;;;21.74;40.56;100113.56;8101949;29;20067;-71
2022/04/15 10:55:43;;;;;;;4.95;3.42;;;;;;;21.34;41.60;100114.19;8097390;29;20080;-71
2022/04/15 11:04:13;;;;;;;5.57;3.22;;;;;;;21.44;44.08;100096.22;8097065;29;20048;-70
2022/04/15 11:08:16;;;;;;;4.82;3.13;;;;;;;21.94;41.97;100099.56;8102992;29;20045;-73
2022/04/15 11:12:33;;;;;;;3.85;3.15;;;;;;;22.20;39.05;100099.41;8101923;29;20072;-72
2022/04/15 11:16:40;;;;;;;4.70;3.15;;;;;;;21.77;39.70;100091.44;8093627;29;20086;-71
2022/04/15 11:20:44;;;;;;;6.25;2.65;;;;;;;21.41;40.84;100095.44;8100839;29;20477;-71
2022/04/15 11:24:45;;;;;;;5.15;2.25;;;;;;;21.16;41.89;100091.06;8096266;29;20052;-71
2022/04/15 11:28:52;;;;;;;2.47;1.80;;;;;;;21.02;43.26;100084.50;8096394;29;20147;-71
2022/04/15 11:32:55;;;;;;;4.43;2.55;;;;;;;21.00;42.93;100083.69;8091404;29;20056;-70
2022/04/15 11:37:02;;;;;;;3.33;2.33;;;;;;;21.41;42.04;100074.28;8098222;29;20083;-71
2022/04/15 11:41:03;;;;;;;4.75;1.90;;;;;;;22.03;41.99;100068.31;8093588;29;20052;-71
2022/04/15 11:45:07;;;;;;;2.10;1.90;;;;;;;22.47;40.35;100072.72;8093581;29;20048;-71
2022/04/15 11:49:22;;;;;;;3.88;2.00;;;;;;;22.73;39.45;100067.16;8097041;29;20151;-70
2022/04/15 11:53:23;;;;;;;3.33;1.95;;;;;;;22.66;38.48;100070.16;8092767;29;20130;-70
2022/04/15 11:57:25;;;;;;;3.70;1.95;;;;;;;22.28;37.74;100065.56;8094521;29;20071;-70
2022/04/15 12:01:27;;;;;;;;;;;;;;;21.90;37.54;100064.47;8091042;29;20383;-70
2022/04/15 12:05:29;;;;;;;2.25;1.20;;;;;;;22.03;38.88;100054.22;8092502;29;19927;-72
2022/04/15 12:09:30;;;;;;;3.85;1.27;;;;;;;22.17;36.76;100064.28;8090527;29;20050;-71
2022/04/15 12:13:41;;;;;;;3.67;1.23;;;;;;;22.45;37.12;100067.50;8097079;29;20050;-71
2022/04/15 12:17:42;;;;;;;2.00;1.13;;;;;;;22.49;36.92;100068.22;8092156;29;20147;-71
2022/04/15 12:21:46;;;;;;;1.65;1.25;;;;;;;22.58;37.37;100057.22;8096375;29;20048;-71
2022/04/15 12:26:09;;;;;;;2.75;0.82;;;;;;;22.90;38.39;100047.91;8096165;29;20040;-71
2022/04/15 12:30:11;;;;;;;1.33;0.80;;;;;;;23.07;36.68;100052.47;8092912;29;20513;-71
2022/04/15 12:34:12;;;;;;;3.53;0.98;;;;;;;22.75;36.26;100052.06;8106061;29;20485;-71
2022/04/15 12:38:14;;;;;;;3.22;1.02;;;;;;;22.45;36.36;100054.28;8093902;29;20040;-71
2022/04/15 12:42:27;;;;;;;1.70;0.80;;;;;;;22.44;37.22;100047.25;8096316;29;20464;-71
2022/04/15 12:46:29;;;;;;;5.07;1.20;;;;;;;22.63;36.36;100042.03;8092112;29;20041;-71
2022/04/15 12:50:33;;;;;;;2.28;0.75;;;;;;;22.92;36.94;100033.69;8095194;29;20755;-71
2022/04/15 12:54:55;;;;;;;4.28;0.75;;;;;;;23.18;36.45;100040.47;8099962;29;20052;-71
2022/04/15 12:58:57;;;;;;;2.33;0.90;;;;;;;23.26;35.28;100042.75;8093095;29;20151;-71
2022/04/15 13:02:59;;;;;;;3.80;0.88;;;;;;;23.34;35.82;100027.38;8099671;29;20063;-72
2022/04/15 13:07:00;;;;;;;;;;;;;;;23.45;34.95;100033.00;8093888;29;20045;-71
2022/04/15 13:11:02;;;;;;;4.57;0.73;;;;;;;23.32;33.98;100029.19;8092320;29;20022;-71
2022/04/15 13:15:09;;;;;;;4.57;0.90;;;;;;;23.33;34.41;100028.28;8090012;29;20055;-71
2022/04/15 13:19:10;;;;;;;3.78;0.90;;;;;;;23.44;33.46;100015.38;8076944;29;20136;-71
2022/04/15 13:23:12;;;;;;;1.88;0.80;;;;;;;23.40;32.33;100027.06;8096099;29;20044;-71
2022/04/15 13:27:13;;;;;;;2.38;0.50;;;;;;;23.46;34.16;100015.31;8101500;29;20055;-71
2022/04/15 13:31:15;;;;;;;1.02;0.60;;;;;;;23.61;32.89;100016.41;8098550;29;20365;-71
2022/04/15 13:35:16;;;;;;;2.20;0.55;;;;;;;23.39;32.94;100012.09;8098188;29;20056;-71
2022/04/15 13:39:18;;;;;;;1.45;0.90;;;;;;;23.23;33.42;100016.41;8095484;29;20145;-71
2022/04/15 13:43:20;;;;;;;2.53;0.63;;;;;;;22.90;33.59;100011.69;8094446;29;20045;-71
2022/04/15 13:47:22;;;;;;;2.05;0.60;;;;;;;22.81;35.73;100011.25;8096924;29;20123;-71
2022/04/15 13:51:23;;;;;;;7.85;0.45;;;;;;;22.83;34.46;100002.31;8099131;29;20048;-70
2022/04/15 13:59:44;;;;;;;1.23;0.60;;;;;;;23.25;34.36;100011.03;8097147;29;20059;-70
2022/04/15 14:03:46;;;;;;;1.20;0.30;;;;;;;23.38;33.28;99997.13;8092708;29;20049;-70
2022/04/15 14:07:47;;;;;;;3.28;0.65;;;;;;;23.49;32.32;100013.38;8098630;29;20050;-70
2022/04/15 14:11:51;;;;;;;0.75;0.40;;;;;;;23.60;31.84;100014.69;8098663;29;20437;-71
2022/04/15 14:15:52;;;;;;;2.80;0.50;;;;;;;23.56;31.55;99999.84;8094228;29;20072;-70
2022/04/15 14:19:53;;;;;;;1.30;0.40;;;;;;;23.58;31.26;100000.66;8095475;29;20087;-70
2022/04/15 14:23:55;;;;;;;1.02;0.38;;;;;;;23.65;32.87;99999.41;8098799;29;20062;-71
2022/04/15 14:27:57;;;;;;;1.17;0.40;;;;;;;23.65;32.08;99994.09;8094076;29;20048;-70
2022/04/15 14:32:02;;;;;;;0.90;0.40;;;;;;;23.59;32.03;100000.56;8096192;29;20435;-71
2022/04/15 14:36:04;;;;;;;1.55;0.30;;;;;;;23.50;30.83;100009.78;8095815;29;20119;-70
2022/04/15 14:40:06;;;;;;;0.60;0.30;;;;;;;23.36;31.63;100000.78;8096105;29;20045;-71
2022/04/15 14:44:07;;;;;;;1.02;0.30;;;;;;;23.28;31.27;100003.78;8096030;29;20122;-70
2022/04/15 14:48:09;;;;;;;0.38;0.20;;;;;;;23.18;30.86;99994.56;8095531;29;20056;-70
2022/04/15 14:52:10;;;;;;;;;;;;;;;23.36;31.78;99996.34;8078560;29;20082;-70
2022/04/15 14:56:12;;;;;;;0.33;0.20;;;;;;;23.30;30.43;100006.34;8101185;29;19927;-70
2022/04/15 15:00:14;;;;;;;0.35;0.20;;;;;;;23.17;31.53;99991.06;8087271;29;20048;-70
2022/04/15 15:04:15;;;;;;;;;;;;;;;23.15;31.10;99992.03;8094226;29;20059;-71
2022/04/15 15:08:37;;;;;;;0.90;0.20;;;;;;;23.08;32.05;99985.31;8090888;29;19986;-70
2022/04/15 15:12:39;;;;;;;0.10;0.10;;;;;;;23.00;31.26;99984.81;8102235;29;20056;-71
2022/04/15 15:16:41;;;;;;;0.50;0.20;;;;;;;22.94;32.61;99977.13;8089021;29;20131;-71
2022/04/15 15:20:42;;;;;;;0.40;0.20;;;;;;;22.73;31.97;99977.13;8092381;29;20052;-70
2022/04/15 15:33:25;;;;;;;0.32;0.30;;;;;;;21.99;32.74;99981.22;8086767;29;20414;-70
2022/04/15 15:37:30;;;;;;;0.70;0.20;;;;;;;22.06;33.98;99969.47;8093960;29;20055;-70
2022/04/15 15:41:31;;;;;;;0.32;0.20;;;;;;;22.19;33.15;99968.03;8085922;29;20055;-70
2022/04/15 15:45:33;;;;;;;2.53;0.25;;;;;;;22.39;32.37;99971.63;8101792;29;20063;-70
2022/04/15 15:49:36;;;;;;;0.20;0.17;;;;;;;22.48;31.56;99972.09;8086610;29;20045;-71
2022/04/15 15:53:39;;;;;;;1.45;0.20;;;;;;;22.55;30.46;99978.81;8090711;29;20084;-70
2022/04/15 15:57:41;;;;;;;0.28;0.20;;;;;;;22.74;31.79;99967.41;8094885;29;20076;-71
2022/04/15 16:01:43;;;;;;;0.63;0.28;;;;;;;23.04;30.89;99971.34;8097412;29;20045;-71
2022/04/15 16:05:45;;;;;;;0.10;0.10;;;;;;;23.10;30.50;99979.00;8094948;29;20053;-71
2022/04/15 16:09:47;;;;;;;1.02;0.17;;;;;;;23.30;30.05;99977.22;8100382;29;20538;-70
2022/04/15 16:13:51;;;;;;;0.22;0.17;;;;;;;23.68;30.79;99973.59;8094089;29;20142;-70
2022/04/15 16:17:52;;;;;;;2.17;0.10;;;;;;;23.98;29.91;99984.50;8098064;29;20594;-69
2022/04/15 16:21:54;;;;;;;1.05;0.10;;;;;;;24.33;29.43;99980.09;8097824;29;20076;-70
2022/04/15 16:25:55;;;;;;;0.55;0.10;;;;;;;24.70;28.23;99978.16;8096763;29;20552;-70
2022/04/15 16:29:57;;;;;;;1.88;0.20;;;;;;;24.92;27.10;99976.06;8094162;29;20048;-70
2022/04/15 16:33:59;;;;;;;;;;;;;;;25.04;28.58;99981.69;8094941;29;20506;-69
2022/04/15 16:38:01;;;;;;;1.73;0.30;;;;;;;24.40;29.19;99984.13;8092295;29;19933;-69
2022/04/15 16:42:03;;;;;;;0.22;0.13;;;;;;;23.87;28.13;99986.81;8097557;29;20053;-70
2022/04/15 16:46:05;;;;;;;0.10;0.10;;;;;;;23.40;29.69;99982.00;8091726;29;20092;-70
2022/04/15 16:50:09;;;;;;;0.47;0.10;;;;;;;23.02;31.75;99986.47;8074724;29;20048;-69
2022/04/15 16:54:10;;;;;;;0.45;0.20;;;;;;;22.60;31.91;99992.69;8091103;29;20624;-69
2022/04/15 17:02:32;;;;;;;1.15;0.30;;;;;;;21.86;32.39;99985.28;8095858;29;20084;-70
2022/04/15 17:06:34;;;;;;;0.55;0.20;;;;;;;21.64;33.13;99980.88;8101367;29;20048;-69
2022/04/15 17:10:36;;;;;;;2.58;0.30;;;;;;;21.27;33.49;99986.75;8100451;29;20441;-69
2022/04/15 17:14:39;;;;;;;0.65;0.30;;;;;;;20.95;33.47;99985.31;8100047;29;20500;-69
2022/04/15 17:18:42;;;;;;;;;;;;;;;20.76;35.17;100000.97;8095123;29;20453;-69
2022/04/15 17:22:50;;;;;;;3.72;0.65;;;;;;;20.46;34.92;99997.63;8096367;29;19958;-69
2022/04/15 17:26:52;;;;;;;0.30;0.20;;;;;;;20.20;35.61;99998.50;8096220;29;20044;-69
2022/04/15 17:30:55;;;;;;;1.95;0.30;;;;;;;19.97;35.33;100003.69;8091952;29;20067;-69
2022/04/15 17:34:56;;;;;;;0.25;0.20;;;;;;;19.81;36.52;100007.75;8098348;29;20624;-69
2022/04/15 17:38:58;;;;;;;0.38;0.30;;;;;;;19.73;36.97;100005.34;8101234;29;20199;-69
2022/04/15 17:42:59;;;;;;;4.57;0.20;;;;;;;19.60;37.14;100012.78;8104818;29;20083;-69
2022/04/15 17:47:02;;;;;;;0.40;0.20;;;;;;;19.47;37.97;100005.28;8093317;29;20059;-71
2022/04/15 17:51:03;;;;;;;2.00;0.40;;;;;;;19.28;38.64;100016.38;8112720;29;20051;-71
2022/04/15 17:55:06;;;;;;;1.90;0.47;;;;;;;19.17;39.19;100021.09;8116689;29;20135;-70
2022/04/15 17:59:08;;;;;;;0.90;0.50;;;;;;;18.87;39.72;100017.59;8102677;29;20409;-69
2022/04/15 18:03:10;;;;;;;1.40;0.55;;;;;;;18.70;39.95;100020.69;8096337;29;20066;-70
2022/04/15 18:07:13;;;;;;;;;;;;;;;18.52;39.43;100026.41;8093855;29;20478;-71
2022/04/15 18:11:16;;;;;;;1.00;0.60;;;;;;;18.39;41.68;100039.00;8099607;29;19937;-70
2022/04/15 18:15:17;;;;;;;3.80;0.70;;;;;;;18.19;41.33;100035.16;8106846;29;20112;-70
2022/04/15 18:19:19;;;;;;;1.00;0.90;;;;;;;17.97;41.65;100040.09;8100339;29;20136;-70
2022/04/15 18:23:24;;;;;;;1.10;1.00;;;;;;;17.72;42.27;100040.66;8104831;29;20320;-70
2022/04/15 18:27:25;;;;;;;1.45;1.17;;;;;;;17.53;42.03;100055.06;8099910;29;20047;-69
2022/04/15 18:31:29;;;;;;;0.93;0.87;;;;;;;17.34;41.38;100057.22;8091860;29;20063;-70
2022/04/15 18:35:32;;;;;;;2.17;1.02;;;;;;;17.16;41.09;100057.59;8097319;29;20060;-70
2022/04/15 18:39:34;;;;;;;1.00;0.90;;;;;;;16.95;42.20;100065.91;8101719;29;20123;-71
2022/04/15 18:43:35;;;;;;;2.20;1.23;;;;;;;16.83;43.68;100073.13;8097459;29;20354;-70
2022/04/15 18:47:41;;;;;;;2.45;0.98;;;;;;;16.66;42.73;100076.91;8088837;29;20142;-71
2022/04/15 18:56:03;;;;;;;3.08;1.00;;;;;;;16.30;43.45;100088.00;8092970;29;20404;-71
2022/04/15 19:00:08;;;;;;;1.00;0.80;;;;;;;16.13;44.35;100086.53;8107110;29;20147;-70
2022/04/15 19:04:09;;;;;;;0.70;0.65;;;;;;;16.04;43.15;100103.28;8100245;29;20048;-71
2022/04/15 19:08:11;;;;;;;1.43;1.07;;;;;;;15.94;44.27;100104.31;8101778;29;20072;-71
2022/04/15 19:12:12;;;;;;;1.97;1.13;;;;;;;15.93;45.11;100113.91;8101452;29;20199;-71
2022/04/15 19:16:13;;;;;;;2.73;2.00;;;;;;;15.86;46.48;100121.91;8097705;29;20060;-69
2022/04/15 19:20:15;;;;;;;2.75;1.95;;;;;;;15.79;47.12;100122.84;8076700;29;20412;-70
2022/04/15 19:24:18;;;;;;;4.63;2.03;;;;;;;15.74;47.88;100138.63;8098136;29;20080;-69
2022/04/15 19:28:19;;;;;;;;;;;;;;;15.63;48.70;100132.69;8116220;29;20147;-70
2022/04/15 19:32:20;;;;;;;4.60;2.47;;;;;;;15.57;48.70;100133.59;8091254;29;20343;-69